Time;durP1;ratioP1;P1;durP2;ratioP2;P2;SDS_P1;SDS_P2;PMS_P1;PMS_P2;Temp;Humidity;BMP_temperature;BMP_pressure;BME280_temperature;BME280_humidity;BME280_pressure;Samples;Min_cycle;Max_cycle;Signal;HPM_P1;HPM_P2
2022/11/29 00:00:27;;;;;;;17.45;11.93;;;;;;;4.82;100.00;100804.66;5088023;28;20110;-74
2022/11/29 00:02:53;;;;;;;18.80;13.45;;;;;;;4.82;100.00;100790.94;5096414;28;20057;-72
2022/11/29 00:05:19;;;;;;;21.80;12.07;;;;;;;4.83;100.00;100798.56;5092322;28;20424;-73
2022/11/29 00:07:44;;;;;;;19.85;12.30;;;;;;;4.86;100.00;100798.38;5091657;28;20036;-73
2022/11/29 00:10:10;;;;;;;18.63;11.90;;;;;;;4.87;100.00;100794.88;5095114;28;20028;-72
2022/11/29 00:12:36;;;;;;;16.95;10.82;;;;;;;4.86;100.00;100800.97;5089881;28;20134;-73
2022/11/29 00:15:01;;;;;;;19.33;11.80;;;;;;;4.84;100.00;100800.22;5089254;28;20031;-73
2022/11/29 00:17:26;;;;;;;15.98;10.85;;;;;;;4.80;100.00;100796.19;5096157;28;20074;-73
2022/11/29 00:19:52;;;;;;;20.77;11.93;;;;;;;4.77;100.00;100796.38;5094490;28;20047;-73
2022/11/29 00:22:17;;;;;;;19.30;11.80;;;;;;;4.73;100.00;100794.09;5094502;28;20028;-73
2022/11/29 00:24:43;;;;;;;19.80;11.15;;;;;;;4.70;100.00;100795.16;5100990;28;20395;-73
2022/11/29 00:27:08;;;;;;;18.27;11.50;;;;;;;4.67;100.00;100790.19;5095272;28;20166;-73
2022/11/29 00:29:34;;;;;;;17.80;11.82;;;;;;;4.67;100.00;100792.78;5075621;28;20440;-73
2022/11/29 00:32:00;;;;;;;19.83;11.18;;;;;;;4.69;100.00;100787.50;5087793;28;20129;-73
2022/11/29 00:34:25;;;;;;;19.42;11.20;;;;;;;4.70;100.00;100782.25;5093448;28;20495;-73
2022/11/29 00:36:51;;;;;;;18.15;11.90;;;;;;;4.70;100.00;100790.00;5092561;28;20031;-73
2022/11/29 00:39:17;;;;;;;19.40;11.80;;;;;;;4.66;100.00;100785.94;5096091;28;20020;-73
2022/11/29 00:41:42;;;;;;;16.25;11.30;;;;;;;4.62;100.00;100781.91;5097374;28;20070;-73
2022/11/29 00:44:08;;;;;;;19.30;13.00;;;;;;;4.58;100.00;100778.69;5095324;28;20024;-72
2022/11/29 00:46:34;;;;;;;18.00;11.80;;;;;;;4.56;100.00;100777.16;5091521;28;20023;-73
2022/11/29 00:48:59;;;;;;;22.60;12.80;;;;;;;4.55;100.00;100778.91;5089847;28;20016;-73
2022/11/29 00:51:25;;;;;;;18.38;13.00;;;;;;;4.58;100.00;100780.44;5097306;28;20024;-73
2022/11/29 00:53:50;;;;;;;19.73;13.13;;;;;;;4.58;100.00;100777.88;5090548;28;20039;-72
2022/11/29 00:56:16;;;;;;;19.65;13.65;;;;;;;4.58;100.00;100777.88;5091441;28;20028;-73
2022/11/29 00:58:42;;;;;;;20.02;14.77;;;;;;;4.59;100.00;100779.53;5097258;28;20031;-73
2022/11/29 01:01:08;;;;;;;22.98;14.70;;;;;;;4.57;100.00;100778.78;5092567;28;20081;-73
2022/11/29 01:03:34;;;;;;;19.63;14.77;;;;;;;4.60;100.00;100778.59;5090600;28;20024;-72
2022/11/29 01:06:10;;;;;;;21.77;14.40;;;;;;;4.58;100.00;100777.88;5088620;28;20467;-72
2022/11/29 01:08:37;;;;;;;22.23;14.60;;;;;;;4.59;100.00;100777.78;5095879;28;20027;-73
2022/11/29 01:11:21;;;;;;;23.02;14.75;;;;;;;4.58;100.00;100778.69;5098232;28;20027;-73
2022/11/29 01:13:48;;;;;;;25.45;13.75;;;;;;;4.58;100.00;100783.84;5084237;28;21479;-73
2022/11/29 01:16:15;;;;;;;20.55;13.20;;;;;;;4.57;100.00;100783.97;5098953;28;20372;-73
2022/11/29 01:18:42;;;;;;;25.67;16.08;;;;;;;4.53;100.00;100787.66;5088704;28;20035;-73
2022/11/29 01:21:11;;;;;;;26.40;17.00;;;;;;;4.52;100.00;100779.09;5101110;28;20155;-72
2022/11/29 01:23:37;;;;;;;25.17;17.00;;;;;;;4.56;100.00;100780.56;5070366;28;20057;-72
2022/11/29 01:26:15;;;;;;;22.25;15.43;;;;;;;4.56;100.00;100772.81;5094967;28;20043;-72
2022/11/29 01:28:41;;;;;;;25.73;16.80;;;;;;;4.59;100.00;100780.34;5089138;28;20077;-73
2022/11/29 01:31:12;;;;;;;23.67;15.95;;;;;;;4.61;100.00;100777.69;5101286;28;20040;-73
2022/11/29 01:33:38;;;;;;;22.60;16.27;;;;;;;4.62;100.00;100777.56;5086635;28;20558;-73
2022/11/29 01:36:05;;;;;;;23.23;15.60;;;;;;;4.63;100.00;100779.22;5093173;28;20123;-73
2022/11/29 01:38:31;;;;;;;21.73;15.65;;;;;;;4.63;100.00;100771.50;5086703;28;20078;-73
2022/11/29 01:41:01;;;;;;;23.52;17.13;;;;;;;4.59;100.00;100770.03;5089332;28;20483;-72
2022/11/29 01:43:27;;;;;;;21.27;14.35;;;;;;;4.58;100.00;100772.72;5089882;28;20051;-72
2022/11/29 01:45:52;;;;;;;19.52;13.85;;;;;;;4.55;100.00;100770.31;5092420;28;20114;-72
2022/11/29 01:48:31;;;;;;;21.10;12.82;;;;;;;4.53;100.00;100764.44;5095431;28;20036;-72
2022/11/29 01:50:59;;;;;;;16.48;12.32;;;;;;;4.55;100.00;100767.75;5102303;28;20027;-72
2022/11/29 01:53:25;;;;;;;16.40;11.93;;;;;;;4.52;100.00;100763.59;5097192;28;20147;-71
2022/11/29 01:55:55;;;;;;;19.08;13.05;;;;;;;4.51;100.00;100761.13;5096530;28;20031;-73
2022/11/29 01:58:21;;;;;;;18.38;11.43;;;;;;;4.53;100.00;100757.53;5087035;28;20115;-72
2022/11/29 02:00:47;;;;;;;17.08;12.10;;;;;;;4.54;100.00;100766.09;5087919;28;20047;-71
2022/11/29 02:03:15;;;;;;;18.27;11.75;;;;;;;4.58;100.00;100757.22;5088695;28;20036;-72
2022/11/29 02:05:44;;;;;;;16.73;10.52;;;;;;;4.57;100.00;100756.41;5084673;28;20020;-73
2022/11/29 02:08:13;;;;;;;14.10;10.50;;;;;;;4.58;100.00;100757.22;5092681;28;20892;-73
2022/11/29 02:11:06;;;;;;;16.02;11.35;;;;;;;4.61;100.00;100757.84;5069061;28;20111;-73
2022/11/29 02:14:25;;;;;;;18.77;11.77;;;;;;;4.65;100.00;100754.16;5085150;28;20040;-72
2022/11/29 02:17:08;;;;;;;17.70;12.00;;;;;;;4.64;100.00;100759.41;5011462;28;20111;-73
2022/11/29 02:19:57;;;;;;;17.50;11.73;;;;;;;4.63;100.00;100750.84;5005770;28;20041;-72
2022/11/29 02:22:36;;;;;;;17.80;12.18;;;;;;;4.62;100.00;100756.94;5008219;28;20867;-73
2022/11/29 02:25:25;;;;;;;15.85;10.65;;;;;;;4.56;100.00;100756.50;5007249;28;20390;-73
2022/11/29 02:28:10;;;;;;;18.58;11.23;;;;;;;4.56;100.00;100751.34;4989311;28;20046;-73
2022/11/29 02:31:02;;;;;;;18.15;10.65;;;;;;;4.50;100.00;100752.56;5006193;28;20116;-73
2022/11/29 02:33:55;;;;;;;18.05;11.82;;;;;;;4.54;100.00;100758.34;5010171;28;20683;-73
2022/11/29 02:36:43;;;;;;;16.13;11.50;;;;;;;4.58;100.00;100752.06;5011354;28;20073;-73
2022/11/29 02:39:11;;;;;;;19.00;12.88;;;;;;;4.61;100.00;100754.44;5010302;28;20056;-72
2022/11/29 02:42:09;;;;;;;19.10;11.88;;;;;;;4.62;100.00;100749.19;5015708;28;20033;-72
2022/11/29 02:44:43;;;;;;;17.30;11.15;;;;;;;4.62;100.00;100744.03;4935037;29;20091;-72
2022/11/29 02:47:11;;;;;;;19.75;12.68;;;;;;;4.62;100.00;100749.19;4930427;29;20572;-72
2022/11/29 02:49:47;;;;;;;20.05;11.65;;;;;;;4.63;100.00;100750.84;4940464;28;20118;-73
2022/11/29 02:52:24;;;;;;;16.77;11.82;;;;;;;4.61;100.00;100746.72;5004035;28;20038;-72
2022/11/29 02:54:58;;;;;;;19.48;11.60;;;;;;;4.60;100.00;100750.22;5002192;28;20149;-72
2022/11/29 02:57:45;;;;;;;17.30;10.15;;;;;;;4.59;100.00;100746.81;5008570;28;20112;-72
2022/11/29 03:00:18;;;;;;;14.93;11.10;;;;;;;4.57;100.00;100748.66;5002647;28;20045;-73
2022/11/29 03:03:10;;;;;;;14.13;9.60;;;;;;;4.57;100.00;100753.00;5004299;28;20056;-71
2022/11/29 03:05:46;;;;;;;17.40;11.70;;;;;;;4.56;100.00;100748.75;5004727;28;20034;-72
2022/11/29 03:08:37;;;;;;;16.30;11.25;;;;;;;4.56;100.00;100743.59;5006521;28;20081;-71
2022/11/29 03:11:14;;;;;;;20.10;11.02;;;;;;;4.53;100.00;100741.22;5009064;28;20492;-72
2022/11/29 03:14:04;;;;;;;19.50;11.57;;;;;;;4.54;100.00;100745.44;5001457;28;20140;-72
2022/11/29 03:16:58;;;;;;;14.93;10.68;;;;;;;4.53;100.00;100739.47;5013110;28;20808;-72
2022/11/29 03:20:02;;;;;;;15.38;10.35;;;;;;;4.50;100.00;100749.97;4996033;28;20040;-72
2022/11/29 03:23:07;;;;;;;15.43;10.43;;;;;;;4.49;100.00;100745.75;5088791;28;20064;-72
2022/11/29 03:25:58;;;;;;;19.30;11.75;;;;;;;4.52;100.00;100749.88;5087100;28;20036;-72
2022/11/29 03:28:32;;;;;;;14.95;10.55;;;;;;;4.53;100.00;100754.13;5089094;28;20030;-72
2022/11/29 03:31:16;;;;;;;16.33;10.98;;;;;;;4.53;100.00;100754.13;5090294;28;20032;-72
2022/11/29 03:33:42;;;;;;;15.98;10.05;;;;;;;4.54;100.00;100748.03;5087287;28;20023;-72
2022/11/29 03:36:28;;;;;;;19.38;11.40;;;;;;;4.52;100.00;100749.88;5092102;28;20054;-72
2022/11/29 03:39:01;;;;;;;18.92;11.35;;;;;;;4.49;100.00;100747.50;5089356;28;20093;-72
2022/11/29 03:41:45;;;;;;;15.90;10.00;;;;;;;4.49;100.00;100747.50;5093755;28;20103;-72
2022/11/29 03:44:13;;;;;;;16.95;10.88;;;;;;;4.51;100.00;100745.63;5095365;28;20416;-72
2022/11/29 03:46:42;;;;;;;18.00;11.65;;;;;;;4.49;100.00;100743.16;5093362;28;20022;-72
2022/11/29 03:49:33;;;;;;;20.00;11.88;;;;;;;4.51;100.00;100745.63;5090043;28;20051;-72
2022/11/29 03:52:07;;;;;;;17.98;12.30;;;;;;;4.52;100.00;100747.28;5086114;28;20031;-72
2022/11/29 03:54:55;;;;;;;19.65;10.65;;;;;;;4.54;100.00;100742.88;5089360;28;20049;-72
2022/11/29 03:57:35;;;;;;;14.50;10.10;;;;;;;4.56;100.00;100743.59;5092821;28;20040;-71
2022/11/29 04:00:03;;;;;;;17.15;11.50;;;;;;;4.55;100.00;100739.34;5088355;28;20016;-71
2022/11/29 04:03:04;;;;;;;17.60;11.32;;;;;;;4.53;100.00;100736.06;5102066;28;20043;-71
2022/11/29 04:05:47;;;;;;;15.70;10.55;;;;;;;4.47;100.00;100737.28;5060438;28;20044;-72
2022/11/29 04:08:39;;;;;;;15.40;10.50;;;;;;;4.48;100.00;100732.94;5097564;28;20030;-71
2022/11/29 04:11:17;;;;;;;14.68;9.52;;;;;;;4.47;100.00;100734.69;5075863;28;20050;-72
2022/11/29 04:14:07;;;;;;;17.05;9.65;;;;;;;4.49;100.00;100742.34;5082875;28;20055;-72
2022/11/29 04:17:03;;;;;;;13.25;9.45;;;;;;;4.49;100.00;100737.16;5099949;28;20051;-72
2022/11/29 04:19:35;;;;;;;15.05;9.85;;;;;;;4.51;100.00;100737.91;5092282;28;20074;-71
2022/11/29 04:22:31;;;;;;;16.35;9.50;;;;;;;4.52;100.00;100739.56;5096378;28;20027;-72
2022/11/29 04:25:02;;;;;;;14.93;8.90;;;;;;;4.50;100.00;100728.50;5090316;28;20423;-72
2022/11/29 04:28:09;;;;;;;13.90;8.30;;;;;;;4.49;100.00;100735.41;5089430;28;20027;-71
2022/11/29 04:31:00;;;;;;;13.02;8.18;;;;;;;4.49;100.00;100727.69;5094757;28;20489;-72
2022/11/29 04:33:57;;;;;;;12.20;8.65;;;;;;;4.50;100.00;100726.75;5091970;28;20056;-72
2022/11/29 04:36:28;;;;;;;14.30;9.00;;;;;;;4.49;100.00;100727.69;4996818;28;20145;-72
2022/11/29 04:39:10;;;;;;;13.90;8.38;;;;;;;4.47;100.00;100737.28;5002296;28;20057;-72
2022/11/29 04:42:01;;;;;;;14.10;8.35;;;;;;;4.46;100.00;100732.22;4988324;28;20119;-72
2022/11/29 04:44:45;;;;;;;17.17;9.90;;;;;;;4.47;100.00;100733.88;4931714;29;20039;-73
2022/11/29 04:47:30;;;;;;;14.52;8.98;;;;;;;4.44;100.00;100737.47;4931646;29;20058;-72
2022/11/29 04:49:58;;;;;;;20.02;10.02;;;;;;;4.46;100.00;100739.94;4928282;29;20047;-72
2022/11/29 04:52:51;;;;;;;15.50;9.95;;;;;;;4.44;100.00;100731.47;4926539;29;20519;-72
2022/11/29 04:55:48;;;;;;;15.45;8.95;;;;;;;4.43;100.00;100737.56;4928110;29;20151;-72
2022/11/29 04:58:48;;;;;;;16.27;9.13;;;;;;;4.43;100.00;100745.31;4929397;28;20377;-73
2022/11/29 05:01:22;;;;;;;15.13;10.38;;;;;;;4.34;100.00;100739.81;4924347;29;20127;-72
2022/11/29 05:03:59;;;;;;;16.17;9.48;;;;;;;4.37;100.00;100743.13;4930388;29;20460;-73
2022/11/29 05:06:46;;;;;;;13.88;8.93;;;;;;;4.36;100.00;100736.31;4925928;29;20130;-72
2022/11/29 05:09:34;;;;;;;14.85;8.75;;;;;;;4.36;100.00;100737.13;4934477;29;20459;-72
2022/11/29 05:12:18;;;;;;;15.32;9.10;;;;;;;4.31;100.00;100739.16;4937694;28;20046;-73
2022/11/29 05:15:08;;;;;;;13.57;9.00;;;;;;;4.22;100.00;100743.19;5000028;28;20121;-73
2022/11/29 05:18:17;;;;;;;13.75;9.18;;;;;;;4.17;100.00;100732.34;5004874;28;20038;-71
2022/11/29 05:21:03;;;;;;;15.10;9.75;;;;;;;4.25;100.00;100729.28;4920550;28;20035;-72
2022/11/29 05:23:52;;;;;;;14.82;8.32;;;;;;;4.30;100.00;100727.19;4967603;28;20423;-71
2022/11/29 05:26:37;;;;;;;17.45;10.52;;;;;;;4.30;100.00;100719.47;4966344;28;20533;-72
2022/11/29 05:29:13;;;;;;;17.85;10.23;;;;;;;4.21;100.00;100722.66;4956798;28;20074;-73
2022/11/29 05:32:00;;;;;;;19.50;10.60;;;;;;;4.23;100.00;100725.97;4968755;28;20043;-72
2022/11/29 05:35:03;;;;;;;16.05;9.45;;;;;;;4.24;100.00;100727.63;4963725;28;20055;-72
2022/11/29 05:37:34;;;;;;;17.90;10.43;;;;;;;4.22;100.00;100721.72;4963336;28;20090;-72
2022/11/29 05:40:23;;;;;;;17.33;10.75;;;;;;;4.18;100.00;100725.41;4958453;28;20085;-73
2022/11/29 05:43:30;;;;;;;16.15;10.68;;;;;;;4.15;100.00;100723.88;4966392;28;20051;-73
2022/11/29 05:46:11;;;;;;;17.85;11.07;;;;;;;4.11;100.00;100731.88;4898598;28;20155;-73
2022/11/29 05:48:47;;;;;;;14.77;9.75;;;;;;;4.12;100.00;100730.97;4970885;28;20046;-71
2022/11/29 05:51:31;;;;;;;18.85;10.57;;;;;;;4.10;100.00;100723.31;4970576;28;20042;-72
2022/11/29 05:53:56;;;;;;;16.20;10.07;;;;;;;4.08;100.00;100722.59;4994321;28;20373;-72
2022/11/29 05:56:40;;;;;;;24.15;12.05;;;;;;;4.06;100.00;100721.84;5093799;28;20035;-72
2022/11/29 05:59:20;;;;;;;20.20;11.15;;;;;;;4.09;100.00;100713.94;5088894;28;20285;-73
2022/11/29 06:02:37;;;;;;;17.05;10.55;;;;;;;4.13;100.00;100707.66;5085706;28;20024;-72
2022/11/29 06:05:30;;;;;;;15.73;10.00;;;;;;;4.15;100.00;100713.56;5003800;28;20046;-72
2022/11/29 06:08:01;;;;;;;19.02;11.45;;;;;;;4.17;100.00;100710.88;5002295;28;20038;-72
2022/11/29 06:10:31;;;;;;;22.02;12.52;;;;;;;4.17;100.00;100714.28;5009075;28;20037;-72
2022/11/29 06:13:25;;;;;;;20.83;12.07;;;;;;;4.09;100.00;100718.25;5007228;28;20141;-72
2022/11/29 06:16:18;;;;;;;19.80;11.93;;;;;;;4.08;100.00;100709.69;5007336;28;20030;-71
2022/11/29 06:19:05;;;;;;;20.42;12.20;;;;;;;4.13;100.00;100717.97;5006049;28;20436;-72
2022/11/29 06:21:41;;;;;;;19.95;13.27;;;;;;;4.13;100.00;100715.41;5008617;28;20465;-72
2022/11/29 06:24:44;;;;;;;20.45;11.45;;;;;;;3.99;100.00;100712.84;5007699;28;20069;-72
2022/11/29 06:27:31;;;;;;;21.00;11.35;;;;;;;4.03;100.00;100710.91;5005432;28;20172;-72
2022/11/29 06:30:06;;;;;;;21.05;12.15;;;;;;;4.08;100.00;100719.19;5008261;28;20127;-72
2022/11/29 06:32:56;;;;;;;21.58;11.98;;;;;;;4.10;100.00;100712.19;5012191;28;20042;-73
2022/11/29 06:35:36;;;;;;;23.30;12.43;;;;;;;4.13;100.00;100715.41;5008483;28;20037;-72
2022/11/29 06:38:21;;;;;;;18.85;11.05;;;;;;;4.16;100.00;100719.53;5019642;28;20084;-72
2022/11/29 06:40:46;;;;;;;20.05;11.57;;;;;;;4.17;100.00;100724.59;5069350;28;20032;-72
2022/11/29 06:43:12;;;;;;;21.10;11.95;;;;;;;4.18;100.00;100726.25;5070317;28;20036;-73
2022/11/29 06:45:41;;;;;;;20.17;11.85;;;;;;;4.18;100.00;100733.97;5071691;28;20482;-72
2022/11/29 06:48:12;;;;;;;18.55;10.82;;;;;;;4.18;100.00;100739.16;5065618;28;20325;-72
2022/11/29 06:50:47;;;;;;;23.02;12.82;;;;;;;4.17;100.00;100742.66;5071165;28;20043;-72
2022/11/29 06:53:50;;;;;;;21.05;12.60;;;;;;;4.24;100.00;100743.09;5050132;28;20040;-73
2022/11/29 06:56:25;;;;;;;21.48;12.38;;;;;;;4.22;100.00;100748.34;5020134;28;21077;-72
2022/11/29 06:59:12;;;;;;;20.80;11.87;;;;;;;4.20;100.00;100747.63;5019037;28;20049;-72
2022/11/29 07:01:44;;;;;;;21.02;12.18;;;;;;;4.28;100.00;100744.53;5017899;28;20403;-72
2022/11/29 07:04:34;;;;;;;23.95;13.50;;;;;;;4.33;100.00;100745.06;5018184;28;20040;-72
2022/11/29 07:07:00;;;;;;;20.17;12.85;;;;;;;4.36;100.00;100744.03;5018654;28;20034;-72
2022/11/29 07:09:32;;;;;;;20.67;13.07;;;;;;;4.36;100.00;100751.78;5024848;28;20041;-73
2022/11/29 07:11:57;;;;;;;21.85;12.13;;;;;;;4.41;100.00;100742.81;5024054;28;20056;-73
2022/11/29 07:14:23;;;;;;;21.05;11.80;;;;;;;4.44;100.00;100741.81;5020683;28;20045;-73
2022/11/29 07:16:55;;;;;;;26.95;14.50;;;;;;;4.44;100.00;100740.03;5024877;28;20038;-72
2022/11/29 07:19:29;;;;;;;30.38;14.93;;;;;;;4.49;100.00;100750.06;5025203;28;20056;-73
2022/11/29 07:22:29;;;;;;;23.50;13.50;;;;;;;4.48;100.00;100744.09;5024165;28;20034;-72
2022/11/29 07:25:16;;;;;;;20.08;12.63;;;;;;;4.55;100.00;100747.09;5013274;28;20083;-72
2022/11/29 07:27:48;;;;;;;24.40;14.43;;;;;;;4.58;100.00;100747.72;5022697;28;20044;-72
2022/11/29 07:30:20;;;;;;;26.92;15.40;;;;;;;4.59;100.00;100746.81;5022225;28;20125;-72
2022/11/29 07:33:00;;;;;;;23.42;13.93;;;;;;;4.59;100.00;100749.38;5075453;28;20380;-73
2022/11/29 07:35:47;;;;;;;27.70;15.30;;;;;;;4.61;100.00;100750.13;5066890;28;20047;-73
2022/11/29 07:38:12;;;;;;;24.88;15.18;;;;;;;4.68;100.00;100752.31;5089534;28;20490;-73
2022/11/29 07:40:47;;;;;;;25.90;14.23;;;;;;;4.66;100.00;100757.56;5088901;28;20028;-72
2022/11/29 07:43:25;;;;;;;24.00;13.82;;;;;;;4.73;100.00;100753.63;5085119;28;20032;-73
2022/11/29 07:45:51;;;;;;;25.02;15.27;;;;;;;4.78;100.00;100753.31;5093004;28;20088;-73
2022/11/29 07:48:17;;;;;;;22.58;13.95;;;;;;;4.81;100.00;100756.53;5089942;28;20020;-72
2022/11/29 07:50:43;;;;;;;23.27;13.05;;;;;;;4.85;100.00;100752.84;5092050;28;20028;-73
2022/11/29 07:53:19;;;;;;;25.48;15.30;;;;;;;4.88;100.00;100757.78;5092642;28;20119;-72
2022/11/29 07:55:46;;;;;;;26.10;16.42;;;;;;;4.94;100.00;100756.56;5091589;28;20084;-73
2022/11/29 07:58:13;;;;;;;34.38;19.48;;;;;;;5.00;100.00;100757.00;5085931;28;20391;-73
2022/11/29 08:00:40;;;;;;;34.25;21.60;;;;;;;5.08;100.00;100760.81;5085723;28;20027;-73
2022/11/29 08:03:07;;;;;;;31.33;19.23;;;;;;;5.07;100.00;100761.75;5089344;28;20552;-72
2022/11/29 08:05:33;;;;;;;28.42;15.85;;;;;;;5.10;100.00;100761.56;5065455;28;20050;-72
2022/11/29 08:07:59;;;;;;;21.75;13.48;;;;;;;5.14;100.00;100763.84;5093807;28;20028;-73
2022/11/29 08:10:24;;;;;;;24.00;14.15;;;;;;;5.20;100.00;100754.84;5090658;28;20034;-73
2022/11/29 08:12:50;;;;;;;27.23;14.45;;;;;;;5.23;100.00;100759.78;5098975;28;20039;-74
2022/11/29 08:15:18;;;;;;;25.92;15.32;;;;;;;5.19;100.00;100761.75;5098256;28;20038;-73
2022/11/29 08:17:44;;;;;;;30.70;17.75;;;;;;;5.26;100.00;100759.56;5088324;28;20054;-73
2022/11/29 08:20:10;;;;;;;29.23;18.00;;;;;;;5.30;100.00;100767.00;5088894;28;20467;-73
2022/11/29 08:22:36;;;;;;;28.95;15.82;;;;;;;5.36;100.00;100768.38;5088763;28;20036;-73
2022/11/29 08:25:02;;;;;;;27.27;14.75;;;;;;;5.33;100.00;100765.97;5088910;28;20102;-73
2022/11/29 08:27:27;;;;;;;23.45;12.40;;;;;;;5.34;100.00;100767.63;5085587;28;20024;-73
2022/11/29 08:29:53;;;;;;;20.10;11.30;;;;;;;5.29;100.00;100770.53;5090480;28;20036;-72
2022/11/29 08:32:18;;;;;;;21.55;13.57;;;;;;;5.31;100.00;100762.69;5088341;28;20131;-72
2022/11/29 08:34:44;;;;;;;17.75;11.90;;;;;;;5.39;100.00;100763.00;5085973;28;20035;-72
2022/11/29 08:37:09;;;;;;;19.35;12.20;;;;;;;5.42;100.00;100755.03;5088755;28;20149;-72
2022/11/29 08:39:35;;;;;;;21.77;12.13;;;;;;;5.46;100.00;100756.47;5088349;28;20043;-72
2022/11/29 08:42:00;;;;;;;24.67;13.82;;;;;;;5.50;100.00;100757.91;5096040;28;20126;-73
2022/11/29 08:44:26;;;;;;;29.73;13.02;;;;;;;5.46;100.00;100756.47;5083961;28;20044;-72
2022/11/29 08:49:59;;;;;;;20.15;12.27;;;;;;;5.52;100.00;100740.56;5088768;28;20391;-72
2022/11/29 08:55:05;;;;;;;19.98;11.20;;;;;;;5.65;100.00;100751.72;5089432;28;20035;-72
2022/11/29 08:57:30;;;;;;;23.40;12.60;;;;;;;5.72;100.00;100756.44;5088211;28;20032;-72
2022/11/29 08:59:56;;;;;;;29.42;16.00;;;;;;;5.81;100.00;100753.19;5089089;28;20052;-72
2022/11/29 09:02:21;;;;;;;27.98;14.35;;;;;;;5.87;100.00;100763.13;5086768;28;20063;-72
2022/11/29 09:04:47;;;;;;;25.77;12.73;;;;;;;5.92;100.00;100761.06;5093395;28;20085;-68
2022/11/29 09:07:12;;;;;;;21.48;11.70;;;;;;;5.92;100.00;100763.66;5089037;28;20487;-72
2022/11/29 09:09:37;;;;;;;18.25;10.98;;;;;;;5.85;100.00;100765.81;5093141;28;20039;-72
2022/11/29 09:12:06;;;;;;;22.80;11.38;;;;;;;5.82;100.00;100767.78;5087461;28;20062;-72
2022/11/29 09:14:31;;;;;;;22.38;12.15;;;;;;;5.84;100.00;100764.16;5088005;28;23551;-72
2022/11/29 09:16:57;;;;;;;21.33;11.40;;;;;;;5.85;100.00;100763.22;5094792;28;20043;-71
2022/11/29 09:19:22;;;;;;;17.73;10.27;;;;;;;5.82;100.00;100768.63;5087543;28;20115;-74
2022/11/29 09:21:48;;;;;;;17.17;10.40;;;;;;;5.84;100.00;100771.09;5089021;28;20020;-73
2022/11/29 09:24:13;;;;;;;152.02;28.42;;;;;;;5.88;100.00;100762.19;5094827;28;20063;-73
2022/11/29 09:26:40;;;;;;;34.83;15.48;;;;;;;5.92;100.00;100766.25;5093265;28;20028;-73
2022/11/29 09:29:06;;;;;;;22.83;13.38;;;;;;;5.96;100.00;100765.09;5093082;28;20121;-73
2022/11/29 09:31:33;;;;;;;42.45;15.60;;;;;;;6.06;100.00;100770.47;5089023;28;20066;-73
2022/11/29 09:33:59;;;;;;;55.47;15.40;;;;;;;6.12;100.00;100772.63;5073814;28;20475;-73
2022/11/29 09:36:25;;;;;;;56.53;15.85;;;;;;;6.24;100.00;100769.13;5087956;28;20386;-73
2022/11/29 09:38:50;;;;;;;29.13;13.23;;;;;;;6.30;100.00;100764.34;5089436;28;20028;-73
2022/11/29 09:41:37;;;;;;;370.85;55.42;;;;;;;6.33;100.00;100768.47;5087266;28;20063;-72
2022/11/29 09:44:08;;;;;;;;;;;;;;;6.37;100.00;100753.56;5089435;28;20032;-73
2022/11/29 09:46:51;;;;;;;42.97;14.80;;;;;;;6.43;100.00;100759.13;5091214;28;19994;-72
2022/11/29 09:49:16;;;;;;;27.38;10.25;;;;;;;6.51;100.00;100754.22;5082364;28;20360;-73
2022/11/29 09:51:45;;;;;;;19.23;11.15;;;;;;;6.58;100.00;100752.84;5089155;28;20028;-73
2022/11/29 09:54:34;;;;;;;19.73;11.05;;;;;;;6.60;100.00;100761.34;5094202;28;20441;-73
2022/11/29 09:57:05;;;;;;;18.75;9.55;;;;;;;6.58;100.00;100747.66;5090072;28;20020;-74
2022/11/29 09:59:39;;;;;;;14.40;8.27;;;;;;;6.61;100.00;100752.63;5091609;28;20483;-73
2022/11/29 10:02:23;;;;;;;16.98;10.23;;;;;;;6.65;100.00;100748.03;5069820;28;20036;-73
2022/11/29 10:04:59;;;;;;;19.58;11.73;;;;;;;6.68;100.00;100740.03;5089344;28;20035;-73
2022/11/29 10:07:41;;;;;;;18.73;10.73;;;;;;;6.75;100.00;100743.00;5085930;28;20093;-73
2022/11/29 10:10:24;;;;;;;19.23;10.00;;;;;;;6.79;100.00;100750.44;5085613;28;20044;-73
2022/11/29 10:12:53;;;;;;;17.58;10.75;;;;;;;6.81;100.00;100751.13;5083792;28;20487;-73
2022/11/29 10:15:26;;;;;;;19.92;10.73;;;;;;;6.81;100.00;100750.31;5080668;28;20047;-73
2022/11/29 10:18:02;;;;;;;18.23;10.55;;;;;;;6.83;100.00;100749.25;5072246;28;20031;-73
2022/11/29 10:20:32;;;;;;;18.42;10.77;;;;;;;6.87;100.00;100748.09;5086636;28;20028;-73
2022/11/29 10:23:02;;;;;;;17.55;9.65;;;;;;;6.89;100.00;100741.03;5090606;28;20032;-73
2022/11/29 10:25:34;;;;;;;22.70;11.10;;;;;;;6.96;100.00;100734.47;5086675;28;20066;-73
2022/11/29 10:28:00;;;;;;;15.95;9.65;;;;;;;7.03;100.00;100737.44;5086790;28;20036;-75
2022/11/29 10:30:26;;;;;;;16.27;10.25;;;;;;;7.03;100.00;100747.78;5089536;28;20085;-73
2022/11/29 10:32:56;;;;;;;19.38;10.30;;;;;;;6.98;100.00;100740.38;5087655;28;20032;-73
2022/11/29 10:35:22;;;;;;;14.88;7.88;;;;;;;6.91;100.00;100739.16;5085220;28;20751;-73
2022/11/29 10:37:53;;;;;;;13.77;8.65;;;;;;;6.93;99.73;100732.09;5082921;28;20044;-73
2022/11/29 10:40:25;;;;;;;15.45;8.90;;;;;;;6.97;100.00;100741.31;5082417;28;20107;-73
2022/11/29 10:42:52;;;;;;;14.30;9.02;;;;;;;7.02;100.00;100735.78;5085299;28;20050;-73
2022/11/29 10:45:36;;;;;;;16.80;8.77;;;;;;;7.02;98.39;100737.53;5084756;28;20028;-74
2022/11/29 10:48:14;;;;;;;16.85;10.02;;;;;;;7.05;100.00;100739.91;5084855;28;20090;-73
2022/11/29 10:50:42;;;;;;;17.65;9.77;;;;;;;7.08;100.00;100730.13;5088798;28;20028;-73
2022/11/29 10:53:14;;;;;;;16.85;9.30;;;;;;;7.08;100.00;100730.13;5084134;28;20028;-73
2022/11/29 10:55:48;;;;;;;16.33;9.38;;;;;;;7.11;100.00;100731.66;5083915;28;20073;-72
2022/11/29 10:58:23;;;;;;;16.50;9.38;;;;;;;7.16;99.83;100726.94;5086889;28;20032;-73
2022/11/29 11:01:00;;;;;;;14.25;8.82;;;;;;;7.19;97.00;100727.53;5093730;28;20064;-73
2022/11/29 11:03:33;;;;;;;17.88;9.57;;;;;;;7.26;97.70;100733.09;5085441;28;20108;-73
2022/11/29 11:06:04;;;;;;;15.50;8.73;;;;;;;7.29;97.14;100719.88;5089282;28;20035;-74
2022/11/29 11:08:31;;;;;;;14.75;9.15;;;;;;;7.32;96.65;100722.25;5088727;28;20479;-73
2022/11/29 11:10:57;;;;;;;14.43;9.13;;;;;;;7.30;96.31;100724.13;5094288;28;20443;-73
2022/11/29 11:13:27;;;;;;;16.63;9.80;;;;;;;7.33;98.69;100724.72;5090633;28;20537;-73
2022/11/29 11:16:17;;;;;;;15.98;8.85;;;;;;;7.23;94.58;100718.59;5088675;28;20064;-73
2022/11/29 11:18:45;;;;;;;16.25;9.50;;;;;;;7.14;95.34;100732.25;5089623;28;20032;-73
2022/11/29 11:21:12;;;;;;;13.52;7.88;;;;;;;7.09;84.97;100723.19;5091965;28;20115;-73
2022/11/29 11:24:03;;;;;;;11.90;8.00;;;;;;;7.11;81.74;100723.88;5085660;28;20475;-73
2022/11/29 11:26:41;;;;;;;12.02;7.85;;;;;;;7.09;79.58;100726.56;5092242;28;20048;-73
2022/11/29 11:29:17;;;;;;;13.88;7.88;;;;;;;7.11;79.03;100723.88;5087685;28;20027;-73
2022/11/29 11:31:54;;;;;;;16.02;9.55;;;;;;;7.15;77.65;100718.34;5088842;28;20028;-74
2022/11/29 11:34:25;;;;;;;15.18;8.70;;;;;;;7.11;77.88;100718.69;5072779;28;20063;-73
2022/11/29 11:36:52;;;;;;;14.90;8.98;;;;;;;7.14;81.04;100713.28;5091129;28;20467;-74
2022/11/29 11:39:22;;;;;;;15.18;8.05;;;;;;;7.19;76.99;100718.94;5089565;28;20464;-73
2022/11/29 11:44:39;;;;;;;17.67;10.65;;;;;;;7.42;85.52;100718.00;5087076;28;20335;-74
2022/11/29 11:47:15;;;;;;;16.90;10.07;;;;;;;7.38;86.58;100708.81;5086918;28;20032;-73
2022/11/29 11:50:02;;;;;;;49.38;14.43;;;;;;;7.28;79.66;100716.47;5090477;28;20036;-74
2022/11/29 11:52:34;;;;;;;13.20;8.05;;;;;;;7.27;76.89;100712.22;5084126;28;20043;-73
2022/11/29 11:55:04;;;;;;;21.42;8.32;;;;;;;7.31;76.49;100723.19;5087454;28;20048;-73
2022/11/29 11:57:30;;;;;;;19.45;9.25;;;;;;;7.31;77.47;100711.06;5083599;28;20079;-73